AirNav   Everest Fuels
 
 705 users online  

MA35 Hat Factory Heliport
Amesbury, Massachusetts, USA

GOING TO AMESBURY?


FAA INFORMATION EFFECTIVE 05 DECEMBER 2019

Location

FAA Identifier: MA35
Lat/Long: 42-50-06.4500N 070-55-51.9000W
42-50.107500N 070-55.865000W
42.8351250,-70.9310833
(estimated)
Elevation: 10 ft. / 3 m (estimated)
Variation: 16W (2000)
From city: 2 miles NE of AMESBURY, MA
Time zone: UTC -5 (UTC -4 during Daylight Saving Time)
Zip code: 01913

Heliport Operations

Heliport use: Private use. Permission required prior to landing
Activation date: 03/2001
Control tower: no
ARTCC: BOSTON CENTER
FSS: BRIDGEPORT FLIGHT SERVICE STATION
Attendance: UNATNDD
Segmented circle: no

Heliport Communications

WX ASOS at LWM (11 nm SW): PHONE 978-687-8017
WX ASOS at BVY (15 nm S): PHONE 978-921-5042

Nearby radio navigation aids

VOR radial/distance  VOR name  Freq  Var
LWMr067/9.2LAWRENCE VOR/DME112.5015W
PSMr212/15.6PEASE VOR/DME116.5016W
MHTr111/19.4MANCHESTER VOR/DME114.4015W
BOSr021/28.8BOSTON VOR/DME112.7016W
CONr144/36.5CONCORD VOR/DME112.9015W
ENEr218/38.1KENNEBUNK VOR/DME117.1017W

 
NDB name  Hdg/Dist  Freq  Var  ID
ROLLINS207/23.526016WESG . ... --.

Heliport Services

Runway Information

Helipad H1

Dimensions: 100 x 100 ft. / 30 x 30 m
Surface: turf
Traffic pattern: leftleft

Heliport Ownership and Management from official FAA records

Ownership: Privately-owned
Owner: C. DANIEL SWIFT
5 PERY WAY, UNIT 1
NEWBURYPORT, MA 01950
Phone 978-532-2907
Manager: C. DANIEL SWIFT
5 PERY WAY, UNIT 1
NEWBURYPORT, MA 01950
Phone 978-532-2907

Additional Remarks

FOR CD CTC BOSTON APCH AT 603-594-5551.

Instrument Procedures

There are no published instrument procedures at MA35.

Some nearby airports with instrument procedures:

KLWM - Lawrence Municipal Airport (11 nm SW)
KBVY - Beverly Regional Airport (15 nm S)
KPSM - Portsmouth International Airport at Pease (15 nm N)
3B4 - Littlebrook Air Park (20 nm N)
KMHT - Manchester Airport (23 nm W)
 
Loc | Ops | Rwys | IFR | FBO | Links
Com | Nav | Svcs | Stats | Notes
Area around MA35 (Hat Factory Heliport)
 
Road maps at: MapQuest Bing Google
 
Aerial photo
No photo
 
Sectional chart

 
Airport distance calculator
Flying to Hat Factory Heliport? Find the distance to fly.

From to MA35

Sunrise and sunset
Times for 09-Dec-2019
 Local
(UTC-5)
 Zulu
(UTC)
Morning civil twilight06:3211:32
Sunrise07:0412:04
Sunset16:0921:09
Evening civil twilight16:4121:41

Current date and time
Zulu (UTC)  09-Dec-2019 08:10:40
Local (UTC-5)  09-Dec-2019 03:10:40
 
METAR
KLWM 
11nm SW 
090754Z AUTO 21009KT 10SM SCT040 04/00 A3027 RMK AO2 SLP251 T00390000
KPSM 
15nm N 
090756Z 24005KT 10SM BKN041 OVC200 02/M02 A3024 RMK AO2A SLP244 T00201016
KBVY 
15nm S 
090753Z AUTO 20007KT 10SM CLR 06/01 A3025 RMK AO2 SLP242 T00560011
TAF
KPSM 
15nm N 
090539Z 0906/1006 21007KT P6SM SCT025 OVC070 WS020/22045KT FM091300 20005KT 6SM BR OVC020 WS015/22035KT FM091600 18005KT 1SM -RA BR OVC009 WS015/22040KT FM091900 17007KT 1/2SM RA FG OVC003 WS020/20045KT
NOTAMs
Click for the latest NOTAMs
NOTAMs are issued by the DoD/FAA and will open in a separate window not controlled by AirNav.

 

 
 

Would you like to see your business listed on this page?

 If your business provides an interesting product or service to pilots, flight crews, aircraft, or users of the Hat Factory Heliport, you should consider listing it here.  To start the listing process, click on the button below
 
Add a business
 

Other Pages about Hat Factory Heliport

Update a link
 
Copyright © AirNav, LLC. All rights reserved. Privacy Policy  Contact